RORK(METAR)
12/11 16:00
RORK 110700Z 11019KT 9000 SCT008 OVC014 23/22 Q1014 RMK A2995=
戻る
トップページへ戻る
IMOC Co,.Ltd.